sensor_id;sensor_type;location;lat;lon;timestamp;pressure;altitude;pressure_sealevel;temperature;humidity
70314;BME280;71040;47.526;18.986;2023-07-31T00:04:57;99442.50;;;22.44;86.21
70314;BME280;71040;47.526;18.986;2023-07-31T00:09:58;99448.81;;;22.43;86.09
70314;BME280;71040;47.526;18.986;2023-07-31T00:15:01;99442.63;;;22.42;86.12
70314;BME280;71040;47.526;18.986;2023-07-31T00:20:05;99451.75;;;22.39;86.29
70314;BME280;71040;47.526;18.986;2023-07-31T00:25:12;99457.91;;;22.40;86.42
70314;BME280;71040;47.526;18.986;2023-07-31T00:30:15;99452.75;;;22.38;86.30
70314;BME280;71040;47.526;18.986;2023-07-31T00:35:18;99460.91;;;22.37;86.45
70314;BME280;71040;47.526;18.986;2023-07-31T00:40:23;99463.72;;;22.35;86.48
70314;BME280;71040;47.526;18.986;2023-07-31T00:45:24;99463.88;;;22.34;86.48
70314;BME280;71040;47.526;18.986;2023-07-31T00:50:24;99456.03;;;22.32;86.62
70314;BME280;71040;47.526;18.986;2023-07-31T00:55:25;99460.50;;;22.32;86.40
70314;BME280;71040;47.526;18.986;2023-07-31T01:00:26;99459.81;;;22.30;86.39
70314;BME280;71040;47.526;18.986;2023-07-31T01:10:48;99452.81;;;22.29;86.69
70314;BME280;71040;47.526;18.986;2023-07-31T01:15:49;99456.78;;;22.25;86.63
70314;BME280;71040;47.526;18.986;2023-07-31T01:21:03;99463.78;;;22.26;86.67
70314;BME280;71040;47.526;18.986;2023-07-31T01:26:19;99473.75;;;22.24;86.68
70314;BME280;71040;47.526;18.986;2023-07-31T01:31:24;99480.06;;;22.23;86.63
70314;BME280;71040;47.526;18.986;2023-07-31T01:36:30;99480.06;;;22.23;86.64
70314;BME280;71040;47.526;18.986;2023-07-31T01:41:36;99473.03;;;22.22;86.56
70314;BME280;71040;47.526;18.986;2023-07-31T01:46:38;99468.84;;;22.19;86.72
70314;BME280;71040;47.526;18.986;2023-07-31T01:51:39;99466.34;;;22.18;86.63
70314;BME280;71040;47.526;18.986;2023-07-31T01:56:39;99469.84;;;22.18;86.75
70314;BME280;71040;47.526;18.986;2023-07-31T02:01:42;99467.31;;;22.17;86.74
70314;BME280;71040;47.526;18.986;2023-07-31T02:06:45;99463.16;;;22.14;86.59
70314;BME280;71040;47.526;18.986;2023-07-31T02:11:47;99480.81;;;22.15;86.81
70314;BME280;71040;47.526;18.986;2023-07-31T02:16:48;99475.78;;;22.12;86.67
70314;BME280;71040;47.526;18.986;2023-07-31T02:21:48;99474.94;;;22.12;86.75
70314;BME280;71040;47.526;18.986;2023-07-31T02:26:49;99491.34;;;22.07;86.74
70314;BME280;71040;47.526;18.986;2023-07-31T02:31:49;99498.34;;;22.08;86.78
70314;BME280;71040;47.526;18.986;2023-07-31T02:36:54;99494.69;;;22.09;86.94
70314;BME280;71040;47.526;18.986;2023-07-31T02:41:55;99494.00;;;22.07;86.94
70314;BME280;71040;47.526;18.986;2023-07-31T02:46:55;99500.44;;;22.04;86.96
70314;BME280;71040;47.526;18.986;2023-07-31T02:51:55;99506.59;;;22.05;86.96
70314;BME280;71040;47.526;18.986;2023-07-31T02:56:56;99507.59;;;22.04;87.13
70314;BME280;71040;47.526;18.986;2023-07-31T03:01:56;99510.25;;;22.04;87.00
70314;BME280;71040;47.526;18.986;2023-07-31T03:06:57;99500.63;;;22.03;86.99
70314;BME280;71040;47.526;18.986;2023-07-31T03:11:57;99500.75;;;22.01;87.01
70314;BME280;71040;47.526;18.986;2023-07-31T03:17:00;99502.72;;;21.99;87.06
70314;BME280;71040;47.526;18.986;2023-07-31T03:22:03;99504.66;;;21.97;87.17
70314;BME280;71040;47.526;18.986;2023-07-31T03:27:07;99510.13;;;21.96;87.21
70314;BME280;71040;47.526;18.986;2023-07-31T03:32:08;99513.63;;;21.96;87.24
70314;BME280;71040;47.526;18.986;2023-07-31T03:37:11;99514.59;;;21.95;87.39
70314;BME280;71040;47.526;18.986;2023-07-31T03:42:13;99508.59;;;21.93;87.25
70314;BME280;71040;47.526;18.986;2023-07-31T03:47:16;99523.56;;;21.94;87.22
70314;BME280;71040;47.526;18.986;2023-07-31T03:52:16;99513.91;;;21.93;87.39
70314;BME280;71040;47.526;18.986;2023-07-31T03:57:19;99509.75;;;21.91;87.42
70314;BME280;71040;47.526;18.986;2023-07-31T04:02:22;99512.22;;;21.92;87.43
70314;BME280;71040;47.526;18.986;2023-07-31T04:07:25;99518.72;;;21.90;87.31
70314;BME280;71040;47.526;18.986;2023-07-31T04:12:25;99503.03;;;21.87;87.49
70314;BME280;71040;47.526;18.986;2023-07-31T04:17:26;99511.84;;;21.87;87.50
70314;BME280;71040;47.526;18.986;2023-07-31T04:22:26;99515.50;;;21.86;87.52
70314;BME280;71040;47.526;18.986;2023-07-31T04:27:29;99510.44;;;21.83;87.68
70314;BME280;71040;47.526;18.986;2023-07-31T04:32:34;99510.44;;;21.83;87.60
70314;BME280;71040;47.526;18.986;2023-07-31T04:37:39;99508.78;;;21.82;87.77
70314;BME280;71040;47.526;18.986;2023-07-31T04:42:40;99513.44;;;21.80;87.99
70314;BME280;71040;47.526;18.986;2023-07-31T04:47:42;99513.72;;;21.77;87.73
70314;BME280;71040;47.526;18.986;2023-07-31T04:52:43;99516.38;;;21.77;87.97
70314;BME280;71040;47.526;18.986;2023-07-31T04:57:46;99516.50;;;21.76;87.91
70314;BME280;71040;47.526;18.986;2023-07-31T05:02:46;99525.34;;;21.76;88.03
70314;BME280;71040;47.526;18.986;2023-07-31T05:07:49;99520.28;;;21.73;87.82
70314;BME280;71040;47.526;18.986;2023-07-31T05:12:52;99521.41;;;21.71;88.12
70314;BME280;71040;47.526;18.986;2023-07-31T05:17:56;99525.91;;;21.70;88.25
70314;BME280;71040;47.526;18.986;2023-07-31T05:22:56;99524.25;;;21.69;88.93
70314;BME280;71040;47.526;18.986;2023-07-31T05:27:59;99515.84;;;21.64;88.98
70314;BME280;71040;47.526;18.986;2023-07-31T05:32:59;99522.84;;;21.65;89.12
70314;BME280;71040;47.526;18.986;2023-07-31T05:38:00;99512.34;;;21.63;89.14
70314;BME280;71040;47.526;18.986;2023-07-31T05:43:02;99511.50;;;21.63;89.03
70314;BME280;71040;47.526;18.986;2023-07-31T05:48:03;99513.31;;;21.62;89.14
70314;BME280;71040;47.526;18.986;2023-07-31T05:53:03;99514.44;;;21.60;89.53
70314;BME280;71040;47.526;18.986;2023-07-31T05:58:04;99518.94;;;21.59;89.33
70314;BME280;71040;47.526;18.986;2023-07-31T06:03:04;99519.91;;;21.58;89.62
70314;BME280;71040;47.526;18.986;2023-07-31T06:08:07;99526.06;;;21.59;89.55
70314;BME280;71040;47.526;18.986;2023-07-31T06:13:07;99537.16;;;21.54;89.52
70314;BME280;71040;47.526;18.986;2023-07-31T06:18:08;99541.34;;;21.57;89.45
70314;BME280;71040;47.526;18.986;2023-07-31T06:23:08;99543.31;;;21.55;89.65
70314;BME280;71040;47.526;18.986;2023-07-31T06:28:11;99547.66;;;21.56;89.86
70314;BME280;71040;47.526;18.986;2023-07-31T06:33:16;99535.34;;;21.55;90.42
70314;BME280;71040;47.526;18.986;2023-07-31T06:38:22;99536.31;;;21.54;90.98
70314;BME280;71040;47.526;18.986;2023-07-31T06:43:29;99541.50;;;21.55;90.87
70314;BME280;71040;47.526;18.986;2023-07-31T06:48:32;99552.97;;;21.56;90.90
70314;BME280;71040;47.526;18.986;2023-07-31T06:53:35;99556.63;;;21.55;90.48
70314;BME280;71040;47.526;18.986;2023-07-31T06:58:41;99555.63;;;21.56;90.57
70314;BME280;71040;47.526;18.986;2023-07-31T07:03:44;99553.97;;;21.55;90.23
70314;BME280;71040;47.526;18.986;2023-07-31T07:08:44;99563.63;;;21.56;90.38
70314;BME280;71040;47.526;18.986;2023-07-31T07:13:44;99572.44;;;21.56;90.60
70314;BME280;71040;47.526;18.986;2023-07-31T07:18:45;99568.94;;;21.56;91.16
70314;BME280;71040;47.526;18.986;2023-07-31T07:23:45;99569.78;;;21.56;91.01
70314;BME280;71040;47.526;18.986;2023-07-31T07:28:46;99573.28;;;21.57;91.50
70314;BME280;71040;47.526;18.986;2023-07-31T07:33:49;99577.75;;;21.56;91.53
70314;BME280;71040;47.526;18.986;2023-07-31T07:38:51;99575.94;;;21.57;91.32
70314;BME280;71040;47.526;18.986;2023-07-31T07:43:52;99574.94;;;21.58;91.37
70314;BME280;71040;47.526;18.986;2023-07-31T07:48:52;99573.09;;;21.58;91.16
70314;BME280;71040;47.526;18.986;2023-07-31T07:53:55;99565.13;;;21.58;90.72
70314;BME280;71040;47.526;18.986;2023-07-31T07:58:55;99567.66;;;21.60;90.29
70314;BME280;71040;47.526;18.986;2023-07-31T08:04:01;99554.34;;;21.60;90.46
70314;BME280;71040;47.526;18.986;2023-07-31T08:09:08;99565.81;;;21.60;90.45
70314;BME280;71040;47.526;18.986;2023-07-31T08:14:11;99567.38;;;21.63;90.65
70314;BME280;71040;47.526;18.986;2023-07-31T08:19:11;99558.00;;;21.59;90.37
70314;BME280;71040;47.526;18.986;2023-07-31T08:24:14;99560.94;;;21.65;90.22
70314;BME280;71040;47.526;18.986;2023-07-31T08:29:17;99573.25;;;21.66;90.24
70314;BME280;71040;47.526;18.986;2023-07-31T08:34:17;99566.94;;;21.67;90.29
70314;BME280;71040;47.526;18.986;2023-07-31T08:39:17;99577.47;;;21.69;90.26
70314;BME280;71040;47.526;18.986;2023-07-31T08:44:18;99575.47;;;21.71;90.15
70314;BME280;71040;47.526;18.986;2023-07-31T08:49:26;99565.53;;;21.73;90.05
70314;BME280;71040;47.526;18.986;2023-07-31T08:54:26;99568.88;;;21.75;90.04
70314;BME280;71040;47.526;18.986;2023-07-31T08:59:36;99566.94;;;21.77;89.95
70314;BME280;71040;47.526;18.986;2023-07-31T09:04:39;99568.47;;;21.80;89.81
70314;BME280;71040;47.526;18.986;2023-07-31T09:09:42;99575.28;;;21.82;89.80
70314;BME280;71040;47.526;18.986;2023-07-31T09:14:45;99566.19;;;21.85;89.94
70314;BME280;71040;47.526;18.986;2023-07-31T09:19:48;99551.75;;;21.87;89.82
70314;BME280;71040;47.526;18.986;2023-07-31T09:24:50;99555.97;;;21.90;89.76
70314;BME280;71040;47.526;18.986;2023-07-31T09:30:00;99562.13;;;21.90;89.93
70314;BME280;71040;47.526;18.986;2023-07-31T09:35:03;99546.69;;;21.94;89.77
70314;BME280;71040;47.526;18.986;2023-07-31T09:40:28;99543.75;;;21.97;89.65
70314;BME280;71040;47.526;18.986;2023-07-31T09:45:29;99541.66;;;22.00;89.47
70314;BME280;71040;47.526;18.986;2023-07-31T09:50:30;99542.19;;;22.04;89.70
70314;BME280;71040;47.526;18.986;2023-07-31T09:55:31;99538.41;;;22.07;89.83
70314;BME280;71040;47.526;18.986;2023-07-31T10:00:37;99541.63;;;22.10;89.69
70314;BME280;71040;47.526;18.986;2023-07-31T10:10:43;99549.56;;;22.20;89.22
70314;BME280;71040;47.526;18.986;2023-07-31T10:15:44;99556.41;;;22.22;89.16
70314;BME280;71040;47.526;18.986;2023-07-31T10:20:47;99552.31;;;22.28;89.20
70314;BME280;71040;47.526;18.986;2023-07-31T10:25:49;99540.41;;;22.32;89.10
70314;BME280;71040;47.526;18.986;2023-07-31T10:30:56;99534.63;;;22.36;88.99
70314;BME280;71040;47.526;18.986;2023-07-31T10:36:25;99532.34;;;22.42;88.99
70314;BME280;71040;47.526;18.986;2023-07-31T10:41:31;99514.25;;;22.45;88.67
70314;BME280;71040;47.526;18.986;2023-07-31T10:46:34;99521.63;;;22.51;88.77
70314;BME280;71040;47.526;18.986;2023-07-31T10:51:37;99519.50;;;22.55;88.74
70314;BME280;71040;47.526;18.986;2023-07-31T10:56:51;99514.59;;;22.60;88.51
70314;BME280;71040;47.526;18.986;2023-07-31T11:01:58;99516.78;;;22.64;87.99
70314;BME280;71040;47.526;18.986;2023-07-31T11:07:07;99522.50;;;22.69;88.11
70314;BME280;71040;47.526;18.986;2023-07-31T11:12:12;99513.94;;;22.75;87.70
70314;BME280;71040;47.526;18.986;2023-07-31T11:17:12;99511.81;;;22.79;87.75
70314;BME280;71040;47.526;18.986;2023-07-31T11:22:15;99511.19;;;22.85;87.59
70314;BME280;71040;47.526;18.986;2023-07-31T11:27:16;99502.75;;;22.90;87.45
70314;BME280;71040;47.526;18.986;2023-07-31T11:32:17;99512.13;;;22.94;87.53
70314;BME280;71040;47.526;18.986;2023-07-31T11:37:18;99498.31;;;22.98;87.43
70314;BME280;71040;47.526;18.986;2023-07-31T11:42:21;99501.38;;;23.03;87.36
70314;BME280;71040;47.526;18.986;2023-07-31T11:47:22;99493.06;;;23.06;87.17
70314;BME280;71040;47.526;18.986;2023-07-31T11:52:40;99494.56;;;23.09;81.13
70314;BME280;71040;47.526;18.986;2023-07-31T12:02:43;99479.84;;;23.23;83.46
70314;BME280;71040;47.526;18.986;2023-07-31T12:07:52;99488.53;;;23.25;84.17
70314;BME280;71040;47.526;18.986;2023-07-31T12:12:58;99479.25;;;23.29;84.32
70314;BME280;71040;47.526;18.986;2023-07-31T12:18:05;99472.72;;;23.31;84.80
70314;BME280;71040;47.526;18.986;2023-07-31T12:23:22;99469.06;;;23.32;84.70
70314;BME280;71040;47.526;18.986;2023-07-31T12:28:37;99459.63;;;23.38;85.00
70314;BME280;71040;47.526;18.986;2023-07-31T12:33:39;99458.47;;;23.40;85.22
70314;BME280;71040;47.526;18.986;2023-07-31T12:38:41;99449.31;;;23.43;85.11
70314;BME280;71040;47.526;18.986;2023-07-31T12:43:45;99457.16;;;23.44;85.37
70314;BME280;71040;47.526;18.986;2023-07-31T12:48:48;99453.34;;;23.47;85.51
70314;BME280;71040;47.526;18.986;2023-07-31T12:53:51;99450.25;;;23.52;85.29
70314;BME280;71040;47.526;18.986;2023-07-31T12:58:54;99439.41;;;23.53;85.43
70314;BME280;71040;47.526;18.986;2023-07-31T13:03:54;99436.56;;;23.55;85.55
70314;BME280;71040;47.526;18.986;2023-07-31T13:08:57;99433.75;;;23.56;85.27
70314;BME280;71040;47.526;18.986;2023-07-31T13:14:00;99423.91;;;23.57;85.26
70314;BME280;71040;47.526;18.986;2023-07-31T13:19:01;99433.28;;;23.61;85.58
70314;BME280;71040;47.526;18.986;2023-07-31T13:24:04;99423.44;;;23.61;85.60
70314;BME280;71040;47.526;18.986;2023-07-31T13:29:04;99411.41;;;23.57;85.57
70314;BME280;71040;47.526;18.986;2023-07-31T13:34:07;99418.25;;;23.60;85.05
70314;BME280;71040;47.526;18.986;2023-07-31T13:39:10;99408.75;;;23.65;85.60
70314;BME280;71040;47.526;18.986;2023-07-31T13:44:14;99392.56;;;23.59;85.42
70314;BME280;71040;47.526;18.986;2023-07-31T13:49:14;99416.47;;;23.68;85.95
70314;BME280;71040;47.526;18.986;2023-07-31T13:54:15;99411.97;;;23.69;85.61
70314;BME280;71040;47.526;18.986;2023-07-31T13:59:16;99402.28;;;23.68;85.77
70314;BME280;71040;47.526;18.986;2023-07-31T14:04:21;99409.13;;;23.70;85.74
70314;BME280;71040;47.526;18.986;2023-07-31T14:09:24;99402.81;;;23.71;86.00
70314;BME280;71040;47.526;18.986;2023-07-31T14:14:25;99398.31;;;23.72;85.93
70314;BME280;71040;47.526;18.986;2023-07-31T14:19:25;99402.66;;;23.73;86.13
70314;BME280;71040;47.526;18.986;2023-07-31T14:24:26;99399.13;;;23.72;85.95
70314;BME280;71040;47.526;18.986;2023-07-31T14:29:26;99387.47;;;23.73;86.25
70314;BME280;71040;47.526;18.986;2023-07-31T14:34:26;99381.13;;;23.74;86.29
70314;BME280;71040;47.526;18.986;2023-07-31T14:39:29;99382.81;;;23.75;86.18
70314;BME280;71040;47.526;18.986;2023-07-31T14:44:32;99378.31;;;23.76;86.27
70314;BME280;71040;47.526;18.986;2023-07-31T14:49:32;99382.81;;;23.75;86.13
70314;BME280;71040;47.526;18.986;2023-07-31T14:54:33;99377.97;;;23.79;85.90
70314;BME280;71040;47.526;18.986;2023-07-31T14:59:33;99380.47;;;23.80;86.10
70314;BME280;71040;47.526;18.986;2023-07-31T15:04:36;99363.94;;;23.77;86.08
70314;BME280;71040;47.526;18.986;2023-07-31T15:09:38;99363.63;;;23.80;85.99
70314;BME280;71040;47.526;18.986;2023-07-31T15:14:39;99367.97;;;23.81;85.99
70314;BME280;71040;47.526;18.986;2023-07-31T15:19:39;99361.63;;;23.82;86.17
70314;BME280;71040;47.526;18.986;2023-07-31T15:24:39;99372.31;;;23.82;86.52
70314;BME280;71040;47.526;18.986;2023-07-31T15:29:40;99350.13;;;23.81;86.37
70314;BME280;71040;47.526;18.986;2023-07-31T15:34:43;99348.28;;;23.82;86.16
70314;BME280;71040;47.526;18.986;2023-07-31T15:39:45;99342.78;;;23.83;86.35
70314;BME280;71040;47.526;18.986;2023-07-31T15:44:48;99335.63;;;23.84;86.38
70314;BME280;71040;47.526;18.986;2023-07-31T15:49:48;99332.97;;;23.84;86.47
70314;BME280;71040;47.526;18.986;2023-07-31T15:54:52;99321.44;;;23.83;86.37
70314;BME280;71040;47.526;18.986;2023-07-31T15:59:52;99329.28;;;23.85;86.38
70314;BME280;71040;47.526;18.986;2023-07-31T16:04:52;99325.59;;;23.78;80.81
70314;BME280;71040;47.526;18.986;2023-07-31T16:09:55;99323.28;;;23.83;82.90
70314;BME280;71040;47.526;18.986;2023-07-31T16:14:55;99314.13;;;23.86;84.39
70314;BME280;71040;47.526;18.986;2023-07-31T16:19:56;99321.13;;;23.87;84.75
70314;BME280;71040;47.526;18.986;2023-07-31T16:24:56;99323.78;;;23.87;84.67
70314;BME280;71040;47.526;18.986;2023-07-31T16:29:59;99317.78;;;23.85;85.00
70314;BME280;71040;47.526;18.986;2023-07-31T16:35:00;99309.44;;;23.88;84.86
70314;BME280;71040;47.526;18.986;2023-07-31T16:40:01;99306.94;;;23.86;85.10
70314;BME280;71040;47.526;18.986;2023-07-31T16:45:01;99315.63;;;23.88;85.22
70314;BME280;71040;47.526;18.986;2023-07-31T16:50:02;99312.13;;;23.88;84.97
70314;BME280;71040;47.526;18.986;2023-07-31T16:55:03;99309.44;;;23.88;85.21
70314;BME280;71040;47.526;18.986;2023-07-31T17:00:06;99321.97;;;23.87;85.51
70314;BME280;71040;47.526;18.986;2023-07-31T17:05:09;99328.13;;;23.88;85.15
70314;BME280;71040;47.526;18.986;2023-07-31T17:10:09;99334.31;;;23.88;85.36
70314;BME280;71040;47.526;18.986;2023-07-31T17:15:12;99331.66;;;23.88;85.52
70314;BME280;71040;47.526;18.986;2023-07-31T17:20:15;99335.13;;;23.89;85.54
70314;BME280;71040;47.526;18.986;2023-07-31T17:25:18;99332.78;;;23.86;85.62
70314;BME280;71040;47.526;18.986;2023-07-31T17:30:19;99332.97;;;23.84;85.78
70314;BME280;71040;47.526;18.986;2023-07-31T17:35:24;99334.78;;;23.83;85.25
70314;BME280;71040;47.526;18.986;2023-07-31T17:40:24;99339.97;;;23.85;85.65
70314;BME280;71040;47.526;18.986;2023-07-31T17:45:27;99343.63;;;23.84;85.76
70314;BME280;71040;47.526;18.986;2023-07-31T17:50:29;99336.47;;;23.85;85.89
70314;BME280;71040;47.526;18.986;2023-07-31T17:55:29;99319.78;;;23.82;85.82
70314;BME280;71040;47.526;18.986;2023-07-31T18:00:29;99327.78;;;23.82;86.10
70314;BME280;71040;47.526;18.986;2023-07-31T18:05:31;99340.13;;;23.83;85.93
70314;BME280;71040;47.526;18.986;2023-07-31T18:10:47;99335.78;;;23.82;86.25
70314;BME280;71040;47.526;18.986;2023-07-31T18:15:50;99339.59;;;23.80;85.82
70314;BME280;71040;47.526;18.986;2023-07-31T18:20:50;99335.09;;;23.80;86.40
70314;BME280;71040;47.526;18.986;2023-07-31T18:25:51;99351.78;;;23.82;86.07
70314;BME280;71040;47.526;18.986;2023-07-31T18:31:01;99342.44;;;23.78;86.20
70314;BME280;71040;47.526;18.986;2023-07-31T18:36:04;99357.28;;;23.81;86.37
70314;BME280;71040;47.526;18.986;2023-07-31T18:41:10;99359.13;;;23.80;86.07
70314;BME280;71040;47.526;18.986;2023-07-31T18:46:13;99354.09;;;23.77;86.21
70314;BME280;71040;47.526;18.986;2023-07-31T18:51:17;99358.28;;;23.80;86.19
70314;BME280;71040;47.526;18.986;2023-07-31T18:56:18;99361.94;;;23.79;86.36
70314;BME280;71040;47.526;18.986;2023-07-31T19:01:18;99360.28;;;23.78;85.95
70314;BME280;71040;47.526;18.986;2023-07-31T19:06:23;99368.63;;;23.75;86.26
70314;BME280;71040;47.526;18.986;2023-07-31T19:11:24;99370.47;;;23.74;85.83
70314;BME280;71040;47.526;18.986;2023-07-31T19:16:27;99375.66;;;23.76;86.11
70314;BME280;71040;47.526;18.986;2023-07-31T19:21:27;99373.13;;;23.74;85.78
70314;BME280;71040;47.526;18.986;2023-07-31T19:26:30;99375.81;;;23.74;85.86
70314;BME280;71040;47.526;18.986;2023-07-31T19:31:30;99373.28;;;23.73;85.84
70314;BME280;71040;47.526;18.986;2023-07-31T19:36:35;99371.78;;;23.70;85.56
70314;BME280;71040;47.526;18.986;2023-07-31T19:41:36;99372.63;;;23.71;85.76
70314;BME280;71040;47.526;18.986;2023-07-31T19:46:42;99377.09;;;23.70;85.66
70314;BME280;71040;47.526;18.986;2023-07-31T19:51:42;99385.94;;;23.71;85.71
70314;BME280;71040;47.526;18.986;2023-07-31T19:56:46;99383.44;;;23.69;85.83
70314;BME280;71040;47.526;18.986;2023-07-31T20:01:48;99369.41;;;23.67;85.79
70314;BME280;71040;47.526;18.986;2023-07-31T20:06:51;99370.41;;;23.66;85.96
70314;BME280;71040;47.526;18.986;2023-07-31T20:11:54;99371.25;;;23.67;85.72
70314;BME280;71040;47.526;18.986;2023-07-31T20:16:55;99374.06;;;23.65;85.94
70314;BME280;71040;47.526;18.986;2023-07-31T20:21:58;99369.75;;;23.64;85.88
70314;BME280;71040;47.526;18.986;2023-07-31T20:26:59;99369.75;;;23.64;85.66
70314;BME280;71040;47.526;18.986;2023-07-31T20:32:06;99372.75;;;23.61;85.86
70314;BME280;71040;47.526;18.986;2023-07-31T20:37:07;99367.56;;;23.60;85.71
70314;BME280;71040;47.526;18.986;2023-07-31T20:42:07;99362.22;;;23.60;85.81
70314;BME280;71040;47.526;18.986;2023-07-31T20:47:14;99366.03;;;23.57;85.68
70314;BME280;71040;47.526;18.986;2023-07-31T20:52:18;99370.53;;;23.57;85.84
70314;BME280;71040;47.526;18.986;2023-07-31T20:57:21;99361.84;;;23.55;85.97
70314;BME280;71040;47.526;18.986;2023-07-31T21:02:22;99364.53;;;23.55;86.05
70314;BME280;71040;47.526;18.986;2023-07-31T21:07:24;99349.84;;;23.51;85.67
70314;BME280;71040;47.526;18.986;2023-07-31T21:12:25;99344.53;;;23.51;85.88
70314;BME280;71040;47.526;18.986;2023-07-31T21:17:25;99338.34;;;23.50;85.75
70314;BME280;71040;47.526;18.986;2023-07-31T21:22:28;99341.97;;;23.49;85.91
70314;BME280;71040;47.526;18.986;2023-07-31T21:27:34;99345.63;;;23.48;85.81
70314;BME280;71040;47.526;18.986;2023-07-31T21:32:37;99341.28;;;23.47;86.07
70314;BME280;71040;47.526;18.986;2023-07-31T21:37:37;99339.78;;;23.44;85.89
70314;BME280;71040;47.526;18.986;2023-07-31T21:42:40;99341.59;;;23.44;85.86
70314;BME280;71040;47.526;18.986;2023-07-31T21:47:43;99332.13;;;23.41;86.06
70314;BME280;71040;47.526;18.986;2023-07-31T21:52:43;99337.63;;;23.40;85.93
70314;BME280;71040;47.526;18.986;2023-07-31T21:57:46;99333.44;;;23.37;86.39
70314;BME280;71040;47.526;18.986;2023-07-31T22:02:54;99321.09;;;23.36;86.18
70314;BME280;71040;47.526;18.986;2023-07-31T22:07:55;99315.22;;;23.33;86.23
70314;BME280;71040;47.526;18.986;2023-07-31T22:12:58;99319.56;;;23.34;86.39
70314;BME280;71040;47.526;18.986;2023-07-31T22:17:58;99315.38;;;23.31;86.25
70314;BME280;71040;47.526;18.986;2023-07-31T22:22:59;99301.41;;;23.29;86.39
70314;BME280;71040;47.526;18.986;2023-07-31T22:27:59;99304.91;;;23.30;86.39
70314;BME280;71040;47.526;18.986;2023-07-31T22:33:02;99290.88;;;23.28;86.04
70314;BME280;71040;47.526;18.986;2023-07-31T22:38:05;99303.38;;;23.27;86.40
70314;BME280;71040;47.526;18.986;2023-07-31T22:43:08;99289.38;;;23.25;86.14
70314;BME280;71040;47.526;18.986;2023-07-31T22:48:08;99289.53;;;23.24;86.44
70314;BME280;71040;47.526;18.986;2023-07-31T22:53:08;99286.19;;;23.22;86.41
70314;BME280;71040;47.526;18.986;2023-07-31T22:58:14;99279.31;;;23.19;86.12
70314;BME280;71040;47.526;18.986;2023-07-31T23:03:19;99288.34;;;23.18;86.39
70314;BME280;71040;47.526;18.986;2023-07-31T23:08:19;99287.66;;;23.16;86.36
70314;BME280;71040;47.526;18.986;2023-07-31T23:13:20;99281.50;;;23.16;86.32
70314;BME280;71040;47.526;18.986;2023-07-31T23:18:22;99280.66;;;23.15;86.37
70314;BME280;71040;47.526;18.986;2023-07-31T23:23:26;99279.16;;;23.13;86.28
70314;BME280;71040;47.526;18.986;2023-07-31T23:28:26;99267.13;;;23.08;86.28
70314;BME280;71040;47.526;18.986;2023-07-31T23:33:27;99258.97;;;23.10;86.30
70314;BME280;71040;47.526;18.986;2023-07-31T23:38:27;99250.47;;;23.06;86.41
70314;BME280;71040;47.526;18.986;2023-07-31T23:43:30;99248.97;;;23.04;86.66
70314;BME280;71040;47.526;18.986;2023-07-31T23:48:33;99244.47;;;23.04;86.51
70314;BME280;71040;47.526;18.986;2023-07-31T23:53:33;99236.63;;;23.03;86.38
70314;BME280;71040;47.526;18.986;2023-07-31T23:58:34;99233.44;;;22.99;86.60
